Latest Weather Observations for Lismore Airport

IDN60801

Issued at 1:06 am EDT Saturday 20 December 2014 (issued every 30 minutes, with the page automatically refreshed every 10 minutes)

About weather observations | Map of weather stations | Latest weather observations for NSW | Other Formats
Station Details ID: 058214 Name: LISMORE AIRPORT AWS Lat: -28.83 Lon: 153.26 Height: 9.21 m
Data from the previous 72 hours. | See also: Recent months for locations in New South Wales
Date/Time
EDT
Temp
°C
App
Temp
°C
Dew
Point
Rel
Hum
%
Delta-T
°C
Wind Press
QNH
hPa
Press
MSL
hPa
Rain
since 9 am
mm
Dir
 
Spd
km/h
Gust
km/h
Spd
kts
Gust
kts
20/01:00am 21.7 23.7 18.7 83 1.9 SSW 6 7 3 4 1015.1 1015.1 0.0
20/12:30am 21.7 23.0 18.5 82 2.0 SW 9 9 5 5 1015.4 1015.4 0.0
20/12:00am 22.0 23.5 18.8 82 2.0 SSW 9 13 5 7 1015.4 1015.4 0.0
 
Date/Time
EDT
Temp
°C
App
Temp
°C
Dew
Point
Rel
Hum
%
Delta-T
°C
Wind Press
QNH
hPa
Press
MSL
hPa
Rain
since 9 am
mm
Dir
 
Spd
km/h
Gust
km/h
Spd
kts
Gust
kts
19/11:30pm 22.1 25.2 18.7 81 2.1 CALM 0 0 0 0 1015.2 1015.2 0.0
19/11:00pm 22.2 23.7 18.8 81 2.1 SSE 9 13 5 7 1015.3 1015.3 0.0
19/10:30pm 22.0 23.5 18.8 82 2.0 S 9 11 5 6 1015.2 1015.2 0.0
19/10:00pm 22.2 23.3 18.8 81 2.1 SSE 11 15 6 8 1015.0 1015.0 0.0
19/09:30pm 22.2 22.5 18.8 81 2.1 SSE 15 17 8 9 1014.5 1014.5 0.0
19/09:00pm 22.7 23.0 18.7 78 2.5 SSE 15 19 8 10 1014.0 1014.0 0.0
19/08:30pm 22.9 22.7 18.4 76 2.8 SSE 17 22 9 12 1013.8 1013.8 0.0
19/08:00pm 23.5 23.3 18.6 74 3.1 SSE 17 24 9 13 1013.1 1013.1 0.0
19/07:30pm 24.3 23.6 19.4 74 3.1 SSE 22 32 12 17 1012.6 1012.6 0.0
19/07:00pm 25.1 24.2 19.0 69 3.9 SE 22 32 12 17 1012.0 1012.0 0.0
19/06:30pm 25.3 23.8 18.5 66 4.3 SE 24 33 13 18 1011.3 1011.3 0.0
19/06:00pm 25.9 25.5 19.3 67 4.2 SE 20 32 11 17 1010.7 1010.7 0.0
19/05:30pm 26.3 24.6 18.9 63 4.7 SE 26 35 14 19 1010.1 1010.1 0.0
19/05:00pm 27.9 25.5 18.3 56 6.1 SE 28 37 15 20 1009.3 1009.3 0.0
19/04:30pm 27.7 26.4 17.2 52 6.6 SE 20 33 11 18 1008.8 1008.8 0.0
19/04:00pm 28.6 25.2 15.8 45 7.9 SE 28 39 15 21 1008.5 1008.5 0.0
19/03:30pm 29.4 25.7 15.9 44 8.4 SSE 30 50 16 27 1007.6 1007.6 0.0
19/03:23pm 32.2 30.3 15.7 37 10.3 SW 20 41 11 22 1007.7 1007.7 0.0
19/03:03pm 34.5 33.0 10.4 23 14.0 SSW 9 17 5 9 1007.5 1007.5 0.0
19/03:00pm 34.5 32.9 11.6 25 13.6 SW 11 17 6 9 1007.6 1007.6 0.0
19/02:41pm 34.1 31.9 10.7 24 13.6 WSW 13 19 7 10 1007.9 1007.9 0.0
19/02:30pm 33.8 31.8 11.6 26 13.1 WSW 13 22 7 12 1008.0 1008.0 0.0
19/02:00pm 33.2 30.7 12.2 28 12.5 WSW 17 24 9 13 1008.5 1008.5 0.0
19/01:30pm 33.1 31.9 16.0 35 10.7 SW 17 26 9 14 1008.8 1008.8 0.0
19/01:00pm 32.2 30.9 14.8 35 10.7 WSW 15 24 8 13 1009.2 1009.2 0.0
19/12:30pm 31.1 29.6 16.3 41 9.3 W 19 32 10 17 1009.6 1009.6 0.0
19/12:00pm 30.7 29.6 16.3 42 9.0 WSW 17 33 9 18 1009.8 1009.8 0.0
19/11:30am 29.8 28.8 17.6 48 7.8 W 19 28 10 15 1010.0 1010.0 0.0
19/11:00am 28.4 27.9 17.9 53 6.7 WSW 17 32 9 17 1010.2 1010.2 0.0
19/10:30am 27.7 28.3 19.5 61 5.3 NW 15 24 8 13 1010.3 1010.3 0.0
19/10:00am 27.0 26.5 17.8 57 5.8 NW 17 24 9 13 1010.4 1010.4 0.0
19/09:30am 26.4 25.9 17.7 58 5.5 NW 17 22 9 12 1010.5 1010.5 0.0
19/09:00am 25.0 26.6 20.0 74 3.2 N 11 15 6 8 1010.6 1010.6 7.2
19/08:30am 23.6 25.3 19.3 77 2.7 NNW 9 11 5 6 1010.7 1010.7 7.2
19/08:00am 21.7 22.3 18.7 83 1.9 N 13 17 7 9 1010.4 1010.4 7.2
19/07:30am 20.0 21.3 19.2 95 0.5 N 11 15 6 8 1010.5 1010.5 7.2
19/07:00am 19.4 20.0 18.6 95 0.5 NNW 13 15 7 8 1010.3 1010.3 7.2
19/06:30am 19.3 19.4 18.3 94 0.6 NNW 15 17 8 9 1010.2 1010.2 7.2
19/06:00am 19.5 19.9 18.2 92 0.8 N 13 17 7 9 1010.0 1010.0 7.2
19/05:30am 19.4 20.2 18.2 93 0.7 N 11 15 6 8 1009.7 1009.7 7.2
19/05:00am 19.7 20.6 18.5 93 0.7 N 11 15 6 8 1009.4 1009.4 7.2
19/04:30am 19.9 20.4 18.4 91 0.9 NNW 13 17 7 9 1009.5 1009.5 7.2
19/04:00am 20.0 19.8 18.5 91 0.9 N 17 20 9 11 1009.2 1009.2 7.2
19/03:30am 20.5 19.4 18.6 89 1.2 N 22 30 12 16 1009.4 1009.4 7.0
19/03:00am 20.7 21.0 19.5 93 0.8 N 17 22 9 12 1010.4 1010.4 7.0
19/02:30am 21.7 23.3 21.5 99 0.1 NNW 15 19 8 10 1011.4 1011.4 7.0
19/02:00am 21.8 23.8 21.5 98 0.2 N 13 15 7 8 1011.4 1011.4 6.2
19/01:30am 22.0 24.0 21.5 97 0.3 N 13 15 7 8 1011.6 1011.6 6.2
19/01:00am 22.0 25.1 21.0 94 0.7 NNE 6 9 3 5 1011.3 1011.3 5.8
19/12:30am 22.1 26.5 21.3 95 0.5 CALM 0 0 0 0 1011.4 1011.4 5.0
19/12:00am 22.3 25.0 21.3 94 0.7 SSE 9 15 5 8 1010.7 1010.7 4.8
 
Date/Time
EDT
Temp
°C
App
Temp
°C
Dew
Point
Rel
Hum
%
Delta-T
°C
Wind Press
QNH
hPa
Press
MSL
hPa
Rain
since 9 am
mm
Dir
 
Spd
km/h
Gust
km/h
Spd
kts
Gust
kts
18/11:30pm 22.4 23.0 21.0 92 0.9 NNE 19 24 10 13 1010.4 1010.4 4.6
18/11:00pm 22.2 25.9 21.4 95 0.5 W 4 13 2 7 1010.9 1010.9 4.6
18/10:30pm 22.2 26.1 21.2 94 0.7 NW 2 9 1 5 1010.6 1010.6 4.6
18/10:00pm 22.3 25.4 21.1 93 0.8 NE 6 11 3 6 1009.9 1009.9 4.6
18/09:30pm 22.1 26.3 20.9 93 0.8 CALM 0 0 0 0 1009.4 1009.4 4.6
18/09:00pm 22.0 24.4 20.8 93 0.8 SW 9 13 5 7 1009.4 1009.4 4.6
18/08:30pm 22.2 22.7 20.8 92 0.9 NNW 19 22 10 12 1009.1 1009.1 4.6
18/08:00pm 22.0 22.7 20.5 91 1.0 N 17 20 9 11 1008.9 1008.9 4.4
18/07:30pm 22.0 22.3 20.5 91 1.0 N 19 26 10 14 1009.1 1009.1 4.4
18/07:00pm 21.8 22.6 19.9 89 1.2 N 15 20 8 11 1009.4 1009.4 4.4
18/06:33pm 22.3 19.3 19.1 82 2.0 W 33 52 18 28 1009.6 1009.6 3.4
18/06:32pm 22.2 18.9 19.2 83 1.9 W 35 52 19 28 1009.5 1009.5 3.4
18/06:31pm 22.1 18.8 19.3 84 1.8 WSW 35 52 19 28 1009.4 1009.4 3.4
18/06:30pm 22.2 18.7 19.6 85 1.7 WSW 37 59 20 32 1009.0 1009.0 3.4
18/06:17pm 21.8 17.1 19.5 87 1.5 WSW 43 65 23 35 1007.2 1007.2 3.2
18/06:10pm 22.1 16.4 19.3 84 1.8 WSW 48 72 26 39 1008.0 1008.0 0.6
18/06:04pm 26.0 23.9 18.9 65 4.5 WSW 28 72 15 39 1007.6 1007.6 0.2
18/06:00pm 28.5 32.0 23.6 75 3.4 SSW 11 22 6 12 1006.5 1006.5 0.2
18/05:58pm 28.5 32.4 23.6 75 3.4 ESE 9 22 5 12 1006.3 1006.3 0.2
18/05:30pm 29.0 32.0 23.4 72 3.8 NE 13 20 7 11 1004.4 1004.4 0.2
18/05:00pm 29.5 31.4 23.4 69 4.2 NE 19 24 10 13 1004.2 1004.2 0.2
18/04:30pm 30.0 31.3 23.4 67 4.5 NE 22 33 12 18 1003.6 1003.6 0.2
18/04:00pm 30.7 33.0 23.4 65 5.0 NE 17 24 9 13 1003.9 1003.9 0.2
18/03:30pm 31.4 33.0 23.2 61 5.6 NE 20 30 11 16 1004.2 1004.2 0.2
18/03:00pm 31.8 33.4 23.3 60 5.9 ENE 20 26 11 14 1004.5 1004.5 0.2
18/02:30pm 32.1 35.0 24.4 63 5.4 ENE 17 22 9 12 1005.8 1005.8 0.2
18/02:00pm 30.9 34.0 24.1 67 4.7 ENE 15 22 8 12 1006.7 1006.7 0.2
18/01:30pm 30.6 33.9 23.8 67 4.7 NE 13 19 7 10 1007.2 1007.2 0.2
18/01:00pm 30.3 32.2 23.5 67 4.7 NE 19 24 10 13 1008.0 1008.0 0.2
18/12:30pm 28.9 30.7 22.6 69 4.3 NE 17 24 9 13 1008.4 1008.4 0.2
18/12:00pm 28.9 30.5 22.2 67 4.5 NNE 17 22 9 12 1008.9 1008.9 0.2
18/11:30am 28.6 30.8 23.3 73 3.6 NE 17 24 9 13 1009.3 1009.3 0.2
18/11:00am 27.8 31.2 23.4 77 3.0 NE 11 17 6 9 1009.7 1009.7 0.2
18/10:30am 26.7 29.3 21.9 75 3.2 NE 11 22 6 12 1009.8 1009.8 0.0
18/10:00am 25.3 29.3 22.0 82 2.2 SE 4 13 2 7 1010.1 1010.1 0.0
18/09:30am 25.2 28.8 22.1 83 2.1 E 6 9 3 5 1010.2 1010.2 0.0
18/09:00am 24.6 27.1 21.7 84 1.9 NW 11 17 6 9 1010.4 1010.4 1.4
18/08:30am 23.7 26.5 21.6 88 1.4 NNW 9 13 5 7 1009.8 1009.8 1.4
18/08:00am 23.5 25.7 21.8 90 1.1 NNW 13 17 7 9 1009.7 1009.7 1.4
18/07:30am 23.0 26.9 21.1 89 1.2 N 2 11 1 6 1009.6 1009.6 1.4
18/07:00am 22.4 26.8 21.4 94 0.7 CALM 0 0 0 0 1009.4 1009.4 1.4
18/06:30am 21.3 23.3 20.8 97 0.3 NNW 11 15 6 8 1009.4 1009.4 1.4
18/06:00am 20.6 22.3 20.1 97 0.3 N 11 13 6 7 1009.2 1009.2 1.4
18/05:30am 21.2 22.7 20.5 96 0.5 N 13 15 7 8 1009.2 1009.2 1.4
18/05:00am 21.7 23.9 20.5 93 0.8 WSW 9 19 5 10 1009.9 1009.9 1.4
18/04:30am 22.2 24.7 21.0 93 0.8 NE 9 13 5 7 1010.5 1010.5 1.2
18/04:00am 22.9 24.6 20.2 85 1.7 W 11 17 6 9 1011.6 1011.6 0.2
18/03:30am 22.6 25.0 20.9 90 1.1 WSW 9 13 5 7 1010.8 1010.8 0.0
18/03:00am 23.0 25.2 20.5 86 1.6 SE 9 13 5 7 1009.5 1009.5 0.0
18/02:30am 23.2 27.3 20.7 86 1.6 CALM 0 0 0 0 1009.7 1009.7 0.0
18/02:00am 23.4 26.2 20.5 84 1.9 SSW 6 13 3 7 1010.3 1010.3 0.0
18/01:30am 23.5 24.7 20.6 84 1.9 SSW 15 20 8 11 1010.1 1010.1 0.0
18/01:00am 23.6 25.2 20.7 84 1.9 SW 13 17 7 9 1010.6 1010.6 0.0
18/12:30am 23.9 25.9 20.8 83 2.0 SSW 11 15 6 8 1010.5 1010.5 0.0
18/12:00am 24.2 27.5 20.7 81 2.3 SSE 4 9 2 5 1009.9 1009.9 0.0
 
Date/Time
EDT
Temp
°C
App
Temp
°C
Dew
Point
Rel
Hum
%
Delta-T
°C
Wind Press
QNH
hPa
Press
MSL
hPa
Rain
since 9 am
mm
Dir
 
Spd
km/h
Gust
km/h
Spd
kts
Gust
kts
17/11:30pm 24.0 25.2 20.7 82 2.2 SSE 15 22 8 12 1010.1 1010.1 0.0
17/11:00pm 24.1 24.3 20.6 81 2.3 SSE 20 30 11 16 1009.8 1009.8 0.0
17/10:55pm 24.2 24.6 20.7 81 2.3 SSE 19 30 10 16 1009.8 1009.8 0.0
17/10:30pm 24.6 22.8 21.1 81 2.3 SSE 32 44 17 24 1009.8 1009.8 0.0
17/10:00pm 24.6 23.0 21.5 83 2.1 SSE 32 43 17 23 1009.1 1009.1 0.0
17/09:30pm 24.7 24.1 22.0 85 1.8 S 28 37 15 20 1008.3 1008.3 0.0
17/09:13pm 24.7 24.6 22.2 86 1.7 SSE 26 37 14 20 1007.4 1007.4 0.0
17/09:00pm 24.6 24.8 22.1 86 1.7 S 24 32 13 17 1007.0 1007.0 0.0
17/08:30pm 24.9 24.8 22.2 85 1.8 S 26 39 14 21 1006.5 1006.5 0.0
17/08:00pm 25.6 25.4 22.1 81 2.3 SSE 26 37 14 20 1005.7 1005.7 0.0
17/07:30pm 27.4 24.9 21.7 71 3.8 S 37 48 20 26 1004.3 1004.3 0.0
17/07:23pm 28.4 26.8 20.7 63 5.1 SSE 30 46 16 25 1003.9 1003.9 0.0
17/07:00pm 33.5 32.7 18.0 39 10.1 NE 19 26 10 14 1002.9 1002.9 0.0
17/06:30pm 34.3 33.4 18.3 38 10.4 ENE 20 28 11 15 1002.6 1002.6 0.0
17/06:25pm 34.4 33.4 18.0 37 10.6 ENE 20 28 11 15 1002.5 1002.5 0.0
17/06:08pm 34.9 33.5 18.0 36 11.0 ENE 22 30 12 16 1002.2 1002.2 0.0
17/06:00pm 34.9 33.7 18.5 38 10.8 ENE 22 28 12 15 1002.2 1002.2 0.0
17/05:30pm 35.6 34.9 19.5 38 10.7 NE 22 32 12 17 1001.8 1001.8 0.0
17/05:00pm 38.8 39.0 13.2 21 15.8 NW 4 7 2 4 1001.5 1001.5 0.0
17/04:30pm 37.9 38.2 14.5 25 14.6 ENE 6 11 3 6 1001.7 1001.7 0.0
17/04:00pm 37.9 37.1 11.8 21 15.7 NNE 7 9 4 5 1002.0 1002.0 0.0
17/03:30pm 38.3 38.6 12.1 21 15.8 S 2 7 1 4 1002.4 1002.4 0.0
17/03:00pm 38.0 36.5 11.9 21 15.8 SW 11 19 6 10 1002.7 1002.7 0.0
17/02:30pm 37.9 36.8 13.2 23 15.1 SW 11 20 6 11 1002.9 1002.9 0.0
17/02:00pm 37.0 34.8 14.3 26 14.1 WSW 19 24 10 13 1003.2 1003.2 0.0
17/01:30pm 37.3 36.6 17.3 30 13.0 W 17 22 9 12 1003.4 1003.4 0.0
17/01:00pm 36.5 36.3 18.6 35 11.8 W 17 28 9 15 1003.7 1003.7 0.0
17/12:30pm 35.3 36.6 20.8 42 9.8 NW 15 24 8 13 1004.0 1004.0 0.0
17/12:00pm 35.0 36.0 20.2 42 9.9 WNW 15 26 8 14 1004.2 1004.2 0.0
17/11:30am 33.4 33.3 19.5 44 9.2 NW 19 28 10 15 1004.4 1004.4 0.0
17/11:00am 33.0 32.2 18.0 41 9.7 WNW 19 26 10 14 1004.5 1004.5 0.0
17/10:30am 32.5 32.6 18.3 43 9.2 NW 15 22 8 12 1004.6 1004.6 0.0
17/10:00am 30.4 32.3 19.7 52 7.0 NNW 9 15 5 8 1004.8 1004.8 0.0
17/09:30am 28.8 31.6 21.6 65 4.8 NNE 9 13 5 7 1005.1 1005.1 0.0
17/09:00am 27.3 30.5 22.3 74 3.4 N 9 13 5 7 1005.3 1005.3 1.6
17/08:30am 25.9 28.1 21.1 75 3.2 N 11 17 6 9 1005.4 1005.4 1.6
17/08:00am 24.1 25.6 20.6 81 2.3 NNW 13 15 7 8 1005.4 1005.4 1.6
17/07:30am 22.8 23.5 20.5 87 1.5 N 17 20 9 11 1005.2 1005.2 1.6
17/07:00am 21.5 23.1 20.7 95 0.5 N 13 15 7 8 1005.0 1005.0 1.6
17/06:30am 20.6 22.0 20.4 99 0.1 N 13 15 7 8 1004.9 1004.9 1.6
17/06:00am 20.1 21.3 19.9 99 0.1 NNW 13 15 7 8 1004.6 1004.6 1.6
17/05:30am 20.0 21.9 19.7 98 0.2 N 9 9 5 5 1004.4 1004.4 1.6
17/05:00am 20.2 22.1 19.7 97 0.3 N 9 11 5 6 1004.1 1004.1 1.6
17/04:30am 20.9 22.1 20.6 98 0.2 N 15 20 8 11 1003.8 1003.8 1.4
17/04:00am 21.1 22.2 20.4 96 0.5 NNW 15 17 8 9 1004.0 1004.0 1.4
17/03:30am 21.4 22.7 20.9 97 0.3 N 15 17 8 9 1004.5 1004.5 1.4
17/03:00am 21.7 24.2 21.0 96 0.5 N 9 13 5 7 1004.9 1004.9 1.4
17/02:30am 21.6 24.4 20.8 95 0.5 N 7 11 4 6 1005.1 1005.1 1.4
17/02:00am 21.4 23.5 20.9 97 0.3 N 11 17 6 9 1005.2 1005.2 1.4
17/01:30am 21.4 23.1 20.9 97 0.3 N 13 15 7 8 1006.2 1006.2 1.4

Other Formats:

Comma delimited format used in spreadsheet applications
http://www.bom.gov.au/fwo/IDN60801/IDN60801.94572.axf

JavaScript Object Notation format (JSON) in row-major order
http://www.bom.gov.au/fwo/IDN60801/IDN60801.94572.json